Aqs Frigg — LG3575 — position and weather

sailwx.info

Track history (hours):
 
Tides and Currents Weather Stations Pressure Air Temp Water Temp Dewpoint Dewpoint Depression Visibility Wind Speed Wind Dir Waves Ship Positions

Aqs Frigg

Last reported at 2017-Dec-21 04:55 UTC. Time now 2018-Feb-19 06:21 UTC.
Position N 70°40' E 023°41'.
Warning: this ship's position is months out of date.

Length 15 m.

Type: Cargo ship. MMSI: 258264500.

Date/timePositionNaut miles runAvg speedWind from/ knotsBaromVisibWave heightAir tempDewpointWater temp
2017-Dec-21 04:55N 70°40' E 023°41'0 0.3
2017-Dec-21 04:28N 70°40' E 023°41'0 0.0
2017-Dec-21 03:58N 70°40' E 023°41'0 0.0
2017-Dec-21 03:16N 70°40' E 023°41'0 0.0
2017-Dec-20 22:22N 70°40' E 023°41'0 0.0
2017-Dec-20 21:40N 70°40' E 023°41'0 0.0
2017-Dec-20 17:16N 70°40' E 023°41'0 0.6
2017-Dec-20 16:52N 70°40' E 023°41'0 0.3
2017-Dec-20 16:06N 70°40' E 023°41'0 0.0
2017-Dec-20 15:19N 70°40' E 023°41'0 0.0
2017-Dec-20 15:00N 70°40' E 023°41'0 0.0
2017-Dec-20 14:23N 70°40' E 023°41'0 0.0
2017-Dec-20 13:59N 70°40' E 023°41'0 0.0
2017-Dec-20 09:47N 70°40' E 023°41'0 0.0
2017-Dec-20 09:17N 70°40' E 023°41'0 0.0
2017-Dec-20 08:59N 70°40' E 023°41'0 0.0
2017-Dec-20 08:05N 70°40' E 023°41'0 0.0
2017-Dec-20 06:29N 70°40' E 023°41'0 0.0
2017-Dec-20 05:59N 70°40' E 023°41'0 0.0
2017-Dec-20 05:29N 70°40' E 023°41'0 0.0
2017-Dec-20 04:23N 70°40' E 023°41'0 0.0
2017-Dec-20 03:59N 70°40' E 023°41'0 0.0
2017-Dec-20 03:29N 70°40' E 023°41'0 0.0
2017-Dec-20 02:47N 70°40' E 023°41'0 0.0
2017-Dec-20 01:41N 70°40' E 023°41'0 0.0
2017-Dec-20 01:17N 70°40' E 023°41'0 0.0
2017-Dec-20 00:41N 70°40' E 023°41'0 0.0
2017-Dec-20 00:29N 70°40' E 023°41'0 0.0
2017-Dec-19 23:53N 70°40' E 023°41'0 0.0
2017-Dec-19 23:29N 70°40' E 023°41'0 0.0
2017-Dec-19 22:59N 70°40' E 023°41'0 0.0
2017-Dec-19 22:29N 70°40' E 023°41'0 0.0
2017-Dec-19 21:53N 70°40' E 023°41'0 0.0
2017-Dec-19 21:23N 70°40' E 023°41'0 0.0
2017-Dec-19 20:59N 70°40' E 023°41'0 0.0
2017-Dec-19 20:29N 70°40' E 023°41'0 0.0
2017-Dec-19 19:59N 70°40' E 023°41'1 1.3
2017-Dec-19 19:30N 70°40' E 023°39'3 4.8
2017-Dec-19 18:56N 70°38' E 023°35'2 0.5
2017-Dec-19 14:59N 70°39' E 023°34'2 3.8
2017-Dec-19 14:26N 70°40' E 023°40'0 0.0
2017-Dec-19 13:56N 70°40' E 023°40'0 0.0
2017-Dec-19 13:26N 70°40' E 023°40'2 1.0
2017-Dec-19 11:39N 70°38' E 023°39'2 0.1
2017-Dec-18 07:23N 70°37' E 023°35'  
2017-Dec-15 15:25N 70°39' E 023°33'3 4.8
2017-Dec-15 14:54N 70°40' E 023°40'0 0.0
2017-Dec-15 14:18N 70°40' E 023°40'0 0.0
2017-Dec-15 13:54N 70°40' E 023°40'0 0.0
2017-Dec-15 13:30N 70°40' E 023°40'0 0.0
2017-Dec-15 13:00N 70°40' E 023°40'2 0.1
2017-Dec-14 17:34N 70°39' E 023°36'1 7.8
2017-Dec-14 17:26N 70°40' E 023°38'1 0.8
2017-Dec-14 16:19N 70°40' E 023°41'0 0.0
2017-Dec-14 15:55N 70°40' E 023°41'0 0.0
2017-Dec-14 13:49N 70°40' E 023°41'0 0.0
2017-Dec-14 12:13N 70°40' E 023°41'0 0.0
2017-Dec-14 11:49N 70°40' E 023°41'0 0.0
2017-Dec-14 09:43N 70°40' E 023°41'0 0.0
2017-Dec-14 09:25N 70°40' E 023°41'0 0.0
2017-Dec-14 08:49N 70°40' E 023°41'0 0.0
2017-Dec-14 06:07N 70°40' E 023°41'0 0.0
2017-Dec-14 04:25N 70°40' E 023°41'0 0.0
2017-Dec-14 03:43N 70°40' E 023°41'0 0.0
2017-Dec-14 03:19N 70°40' E 023°41'0 0.0
2017-Dec-14 02:55N 70°40' E 023°41'0 0.0
2017-Dec-14 02:25N 70°40' E 023°41'0 0.0
2017-Dec-14 01:55N 70°40' E 023°41'0 0.0
2017-Dec-14 01:25N 70°40' E 023°41'0 0.0
2017-Dec-14 00:55N 70°40' E 023°41'0 0.0
2017-Dec-14 00:19N 70°40' E 023°41'0 0.0
2017-Dec-13 23:55N 70°40' E 023°41'0 0.0
2017-Dec-13 23:25N 70°40' E 023°41'0 0.0
2017-Dec-13 22:55N 70°40' E 023°41'0 0.0
2017-Dec-13 22:25N 70°40' E 023°41'0 0.0
2017-Dec-13 21:43N 70°40' E 023°41'0 0.0
2017-Dec-13 21:19N 70°40' E 023°41'0 0.0
2017-Dec-13 20:55N 70°40' E 023°41'0 0.0
2017-Dec-13 20:25N 70°40' E 023°41'0 0.0
2017-Dec-13 19:55N 70°40' E 023°41'0 0.0
2017-Dec-13 17:55N 70°40' E 023°41'0 0.0
2017-Dec-13 17:19N 70°40' E 023°41'0 0.0
2017-Dec-13 16:49N 70°40' E 023°41'0 0.0
2017-Dec-13 16:25N 70°40' E 023°41'0 0.0
2017-Dec-13 15:55N 70°40' E 023°41'0 0.0
2017-Dec-13 15:25N 70°40' E 023°41'0 0.0
2017-Dec-13 14:55N 70°40' E 023°41'0 0.0
2017-Dec-13 14:13N 70°40' E 023°41'0 0.0
2017-Dec-13 13:55N 70°40' E 023°41'0 0.0
2017-Dec-13 12:49N 70°40' E 023°41'0 0.0
2017-Dec-13 10:31N 70°40' E 023°41'0 0.0
2017-Dec-13 10:25N 70°40' E 023°41'0 0.0
2017-Dec-13 09:55N 70°40' E 023°41'0 0.0
2017-Dec-13 09:25N 70°40' E 023°41'0 0.0
2017-Dec-13 08:37N 70°40' E 023°41'0 0.0
2017-Dec-13 08:19N 70°40' E 023°41'0 0.0
2017-Dec-13 07:43N 70°40' E 023°41'0 0.0
2017-Dec-13 07:07N 70°40' E 023°41'0 0.0
2017-Dec-13 06:49N 70°40' E 023°41'0 0.0
2017-Dec-13 06:25N 70°40' E 023°41'0 0.0
2017-Dec-13 05:55N 70°40' E 023°41'0 0.0
2017-Dec-13 05:19N 70°40' E 023°41'0 0.0
2017-Dec-13 04:55N 70°40' E 023°41'0 0.0
2017-Dec-13 04:19N 70°40' E 023°41'0 0.0
2017-Dec-13 03:55N 70°40' E 023°41'0 0.0
2017-Dec-13 03:25N 70°40' E 023°41'0 0.0
2017-Dec-13 02:49N 70°40' E 023°41'0 0.0
2017-Dec-13 02:25N 70°40' E 023°41'0 0.0
2017-Dec-13 01:55N 70°40' E 023°41'0 0.0
2017-Dec-13 01:25N 70°40' E 023°41'0 0.0
2017-Dec-13 00:55N 70°40' E 023°41'0 0.0
2017-Dec-13 00:19N 70°40' E 023°41'0 0.0
2017-Dec-12 23:55N 70°40' E 023°41'0 0.0
2017-Dec-12 23:25N 70°40' E 023°41'0 0.0
2017-Dec-12 22:55N 70°40' E 023°41'0 0.0
2017-Dec-12 22:25N 70°40' E 023°41'0 0.0
2017-Dec-12 21:49N 70°40' E 023°41'0 0.0
2017-Dec-12 21:19N 70°40' E 023°41'0 0.0
2017-Dec-12 20:55N 70°40' E 023°41'0 0.0
2017-Dec-12 20:07N 70°40' E 023°41'0 0.0
2017-Dec-12 19:55N 70°40' E 023°41'0 0.0
2017-Dec-12 19:25N 70°40' E 023°41'0 0.0
2017-Dec-12 18:43N 70°40' E 023°41'0 0.0
2017-Dec-12 18:25N 70°40' E 023°41'0 0.0
2017-Dec-12 17:57N 70°40' E 023°41'0 0.0
2017-Dec-12 17:26N 70°40' E 023°41'0 0.0
2017-Dec-12 16:50N 70°40' E 023°41'2 5.0
2017-Dec-12 16:30N 70°40' E 023°36'1 0.1
2017-Dec-12 07:52N 70°40' E 023°38'1 1.4
2017-Dec-12 07:11N 70°40' E 023°41'0 0.0
2017-Dec-12 06:59N 70°40' E 023°41'0 0.0
2017-Dec-12 06:23N 70°40' E 023°41'0 0.0
2017-Dec-12 05:35N 70°40' E 023°41'0 0.0
2017-Dec-12 05:23N 70°40' E 023°41'0 0.0
2017-Dec-12 04:59N 70°40' E 023°41'0 0.0
2017-Dec-12 04:17N 70°40' E 023°41'0 0.0
2017-Dec-12 03:59N 70°40' E 023°41'0 0.0
2017-Dec-12 03:17N 70°40' E 023°41'0 0.0
2017-Dec-12 02:59N 70°40' E 023°41'0 0.0
2017-Dec-12 02:05N 70°40' E 023°41'0 0.0
2017-Dec-12 01:59N 70°40' E 023°41'0 0.0
2017-Dec-12 01:23N 70°40' E 023°41'0 0.0
2017-Dec-12 00:59N 70°40' E 023°41'0 0.0
2017-Dec-12 00:29N 70°40' E 023°41'0 0.0
2017-Dec-11 23:59N 70°40' E 023°41'0 0.0
2017-Dec-11 23:23N 70°40' E 023°41'0 0.0
2017-Dec-11 22:59N 70°40' E 023°41'0 0.0
2017-Dec-11 22:29N 70°40' E 023°41'0 0.0
2017-Dec-11 21:59N 70°40' E 023°41'0 0.0
2017-Dec-11 21:29N 70°40' E 023°41'0 0.0
2017-Dec-11 20:53N 70°40' E 023°41'0 0.0
2017-Dec-11 20:17N 70°40' E 023°41'0 0.0
2017-Dec-11 19:59N 70°40' E 023°41'0 0.0
2017-Dec-11 19:29N 70°40' E 023°41'0 0.0
2017-Dec-11 18:53N 70°40' E 023°41'0 0.0
2017-Dec-11 18:29N 70°40' E 023°41'0 0.0
2017-Dec-11 17:35N 70°40' E 023°41'0 0.0
2017-Dec-11 17:29N 70°40' E 023°41'0 0.0
2017-Dec-11 16:47N 70°40' E 023°41'0 0.0
2017-Dec-11 16:11N 70°40' E 023°41'0 0.0
2017-Dec-11 15:59N 70°40' E 023°41'0 0.0
2017-Dec-11 15:17N 70°40' E 023°41'0 0.0
2017-Dec-11 14:53N 70°40' E 023°41'0 0.0
2017-Dec-11 14:23N 70°40' E 023°41'0 0.0
2017-Dec-11 13:53N 70°40' E 023°41'0 0.0
2017-Dec-11 13:23N 70°40' E 023°41'0 0.0
2017-Dec-11 12:53N 70°40' E 023°41'0 0.0
2017-Dec-11 12:29N 70°40' E 023°41'0 0.0
2017-Dec-11 11:41N 70°40' E 023°41'0 0.0
2017-Dec-11 11:29N 70°40' E 023°41'0 0.0
2017-Dec-11 10:05N 70°40' E 023°41'0 0.0
2017-Dec-11 09:59N 70°40' E 023°41'0 0.0
2017-Dec-11 09:29N 70°40' E 023°41'0 0.0
2017-Dec-11 08:59N 70°40' E 023°41'0 0.0
2017-Dec-11 08:29N 70°40' E 023°41'0 0.0
2017-Dec-11 07:59N 70°40' E 023°41'0 0.0
2017-Dec-11 07:05N 70°40' E 023°41'0 0.0
2017-Dec-11 06:47N 70°40' E 023°41'0 0.0
2017-Dec-11 06:29N 70°40' E 023°41'0 0.0
2017-Dec-11 05:47N 70°40' E 023°41'0 0.0
2017-Dec-11 05:29N 70°40' E 023°41'0 0.0
2017-Dec-11 04:59N 70°40' E 023°41'  
Track history (hours):
 
Tides and Currents Weather Stations Pressure Air Temp Water Temp Dewpoint Dewpoint Depression Visibility Wind Speed Wind Dir Waves Ship Positions

Aqs Frigg

Last reported at 2017-Dec-21 04:55 UTC. Time now 2018-Feb-19 06:21 UTC.
Position N 70°40' E 023°41'.
Warning: this ship's position is months out of date.

Length 15 m.

Type: Cargo ship. MMSI: 258264500.

Date/timePositionNaut miles runAvg speedWind from/ knotsBaromVisibWave heightAir tempDewpointWater temp
2017-Dec-21 04:55N 70°40' E 023°41'0 0.3
2017-Dec-21 04:28N 70°40' E 023°41'0 0.0
2017-Dec-21 03:58N 70°40' E 023°41'0 0.0
2017-Dec-21 03:16N 70°40' E 023°41'0 0.0
2017-Dec-20 22:22N 70°40' E 023°41'0 0.0
2017-Dec-20 21:40N 70°40' E 023°41'0 0.0
2017-Dec-20 17:16N 70°40' E 023°41'0 0.6
2017-Dec-20 16:52N 70°40' E 023°41'0 0.3
2017-Dec-20 16:06N 70°40' E 023°41'0 0.0
2017-Dec-20 15:19N 70°40' E 023°41'0 0.0
2017-Dec-20 15:00N 70°40' E 023°41'0 0.0
2017-Dec-20 14:23N 70°40' E 023°41'0 0.0
2017-Dec-20 13:59N 70°40' E 023°41'0 0.0
2017-Dec-20 09:47N 70°40' E 023°41'0 0.0
2017-Dec-20 09:17N 70°40' E 023°41'0 0.0
2017-Dec-20 08:59N 70°40' E 023°41'0 0.0
2017-Dec-20 08:05N 70°40' E 023°41'0 0.0
2017-Dec-20 06:29N 70°40' E 023°41'0 0.0
2017-Dec-20 05:59N 70°40' E 023°41'0 0.0
2017-Dec-20 05:29N 70°40' E 023°41'0 0.0
2017-Dec-20 04:23N 70°40' E 023°41'0 0.0
2017-Dec-20 03:59N 70°40' E 023°41'0 0.0
2017-Dec-20 03:29N 70°40' E 023°41'0 0.0
2017-Dec-20 02:47N 70°40' E 023°41'0 0.0
2017-Dec-20 01:41N 70°40' E 023°41'0 0.0
2017-Dec-20 01:17N 70°40' E 023°41'0 0.0
2017-Dec-20 00:41N 70°40' E 023°41'0 0.0
2017-Dec-20 00:29N 70°40' E 023°41'0 0.0
2017-Dec-19 23:53N 70°40' E 023°41'0 0.0
2017-Dec-19 23:29N 70°40' E 023°41'0 0.0
2017-Dec-19 22:59N 70°40' E 023°41'0 0.0
2017-Dec-19 22:29N 70°40' E 023°41'0 0.0
2017-Dec-19 21:53N 70°40' E 023°41'0 0.0
2017-Dec-19 21:23N 70°40' E 023°41'0 0.0
2017-Dec-19 20:59N 70°40' E 023°41'0 0.0
2017-Dec-19 20:29N 70°40' E 023°41'0 0.0
2017-Dec-19 19:59N 70°40' E 023°41'1 1.3
2017-Dec-19 19:30N 70°40' E 023°39'3 4.8
2017-Dec-19 18:56N 70°38' E 023°35'2 0.5
2017-Dec-19 14:59N 70°39' E 023°34'2 3.8
2017-Dec-19 14:26N 70°40' E 023°40'0 0.0
2017-Dec-19 13:56N 70°40' E 023°40'0 0.0
2017-Dec-19 13:26N 70°40' E 023°40'2 1.0
2017-Dec-19 11:39N 70°38' E 023°39'2 0.1
2017-Dec-18 07:23N 70°37' E 023°35'  
2017-Dec-15 15:25N 70°39' E 023°33'3 4.8
2017-Dec-15 14:54N 70°40' E 023°40'0 0.0
2017-Dec-15 14:18N 70°40' E 023°40'0 0.0
2017-Dec-15 13:54N 70°40' E 023°40'0 0.0
2017-Dec-15 13:30N 70°40' E 023°40'0 0.0
2017-Dec-15 13:00N 70°40' E 023°40'2 0.1
2017-Dec-14 17:34N 70°39' E 023°36'1 7.8
2017-Dec-14 17:26N 70°40' E 023°38'1 0.8
2017-Dec-14 16:19N 70°40' E 023°41'0 0.0
2017-Dec-14 15:55N 70°40' E 023°41'0 0.0
2017-Dec-14 13:49N 70°40' E 023°41'0 0.0
2017-Dec-14 12:13N 70°40' E 023°41'0 0.0
2017-Dec-14 11:49N 70°40' E 023°41'0 0.0
2017-Dec-14 09:43N 70°40' E 023°41'0 0.0
2017-Dec-14 09:25N 70°40' E 023°41'0 0.0
2017-Dec-14 08:49N 70°40' E 023°41'0 0.0
2017-Dec-14 06:07N 70°40' E 023°41'0 0.0
2017-Dec-14 04:25N 70°40' E 023°41'0 0.0
2017-Dec-14 03:43N 70°40' E 023°41'0 0.0
2017-Dec-14 03:19N 70°40' E 023°41'0 0.0
2017-Dec-14 02:55N 70°40' E 023°41'0 0.0
2017-Dec-14 02:25N 70°40' E 023°41'0 0.0
2017-Dec-14 01:55N 70°40' E 023°41'0 0.0
2017-Dec-14 01:25N 70°40' E 023°41'0 0.0
2017-Dec-14 00:55N 70°40' E 023°41'0 0.0
2017-Dec-14 00:19N 70°40' E 023°41'0 0.0
2017-Dec-13 23:55N 70°40' E 023°41'0 0.0
2017-Dec-13 23:25N 70°40' E 023°41'0 0.0
2017-Dec-13 22:55N 70°40' E 023°41'0 0.0
2017-Dec-13 22:25N 70°40' E 023°41'0 0.0
2017-Dec-13 21:43N 70°40' E 023°41'0 0.0
2017-Dec-13 21:19N 70°40' E 023°41'0 0.0
2017-Dec-13 20:55N 70°40' E 023°41'0 0.0
2017-Dec-13 20:25N 70°40' E 023°41'0 0.0
2017-Dec-13 19:55N 70°40' E 023°41'0 0.0
2017-Dec-13 17:55N 70°40' E 023°41'0 0.0
2017-Dec-13 17:19N 70°40' E 023°41'0 0.0
2017-Dec-13 16:49N 70°40' E 023°41'0 0.0
2017-Dec-13 16:25N 70°40' E 023°41'0 0.0
2017-Dec-13 15:55N 70°40' E 023°41'0 0.0
2017-Dec-13 15:25N 70°40' E 023°41'0 0.0
2017-Dec-13 14:55N 70°40' E 023°41'0 0.0
2017-Dec-13 14:13N 70°40' E 023°41'0 0.0
2017-Dec-13 13:55N 70°40' E 023°41'0 0.0
2017-Dec-13 12:49N 70°40' E 023°41'0 0.0
2017-Dec-13 10:31N 70°40' E 023°41'0 0.0
2017-Dec-13 10:25N 70°40' E 023°41'0 0.0
2017-Dec-13 09:55N 70°40' E 023°41'0 0.0
2017-Dec-13 09:25N 70°40' E 023°41'0 0.0
2017-Dec-13 08:37N 70°40' E 023°41'0 0.0
2017-Dec-13 08:19N 70°40' E 023°41'0 0.0
2017-Dec-13 07:43N 70°40' E 023°41'0 0.0
2017-Dec-13 07:07N 70°40' E 023°41'0 0.0
2017-Dec-13 06:49N 70°40' E 023°41'0 0.0
2017-Dec-13 06:25N 70°40' E 023°41'0 0.0
2017-Dec-13 05:55N 70°40' E 023°41'0 0.0
2017-Dec-13 05:19N 70°40' E 023°41'0 0.0
2017-Dec-13 04:55N 70°40' E 023°41'0 0.0
2017-Dec-13 04:19N 70°40' E 023°41'0 0.0
2017-Dec-13 03:55N 70°40' E 023°41'0 0.0
2017-Dec-13 03:25N 70°40' E 023°41'0 0.0
2017-Dec-13 02:49N 70°40' E 023°41'0 0.0
2017-Dec-13 02:25N 70°40' E 023°41'0 0.0
2017-Dec-13 01:55N 70°40' E 023°41'0 0.0
2017-Dec-13 01:25N 70°40' E 023°41'0 0.0
2017-Dec-13 00:55N 70°40' E 023°41'0 0.0
2017-Dec-13 00:19N 70°40' E 023°41'0 0.0
2017-Dec-12 23:55N 70°40' E 023°41'0 0.0
2017-Dec-12 23:25N 70°40' E 023°41'0 0.0
2017-Dec-12 22:55N 70°40' E 023°41'0 0.0
2017-Dec-12 22:25N 70°40' E 023°41'0 0.0
2017-Dec-12 21:49N 70°40' E 023°41'0 0.0
2017-Dec-12 21:19N 70°40' E 023°41'0 0.0
2017-Dec-12 20:55N 70°40' E 023°41'0 0.0
2017-Dec-12 20:07N 70°40' E 023°41'0 0.0
2017-Dec-12 19:55N 70°40' E 023°41'0 0.0
2017-Dec-12 19:25N 70°40' E 023°41'0 0.0
2017-Dec-12 18:43N 70°40' E 023°41'0 0.0
2017-Dec-12 18:25N 70°40' E 023°41'0 0.0
2017-Dec-12 17:57N 70°40' E 023°41'0 0.0
2017-Dec-12 17:26N 70°40' E 023°41'0 0.0
2017-Dec-12 16:50N 70°40' E 023°41'2 5.0
2017-Dec-12 16:30N 70°40' E 023°36'1 0.1
2017-Dec-12 07:52N 70°40' E 023°38'1 1.4
2017-Dec-12 07:11N 70°40' E 023°41'0 0.0
2017-Dec-12 06:59N 70°40' E 023°41'0 0.0
2017-Dec-12 06:23N 70°40' E 023°41'0 0.0
2017-Dec-12 05:35N 70°40' E 023°41'0 0.0
2017-Dec-12 05:23N 70°40' E 023°41'0 0.0
2017-Dec-12 04:59N 70°40' E 023°41'0 0.0
2017-Dec-12 04:17N 70°40' E 023°41'0 0.0
2017-Dec-12 03:59N 70°40' E 023°41'0 0.0
2017-Dec-12 03:17N 70°40' E 023°41'0 0.0
2017-Dec-12 02:59N 70°40' E 023°41'0 0.0
2017-Dec-12 02:05N 70°40' E 023°41'0 0.0
2017-Dec-12 01:59N 70°40' E 023°41'0 0.0
2017-Dec-12 01:23N 70°40' E 023°41'0 0.0
2017-Dec-12 00:59N 70°40' E 023°41'0 0.0
2017-Dec-12 00:29N 70°40' E 023°41'0 0.0
2017-Dec-11 23:59N 70°40' E 023°41'0 0.0
2017-Dec-11 23:23N 70°40' E 023°41'0 0.0
2017-Dec-11 22:59N 70°40' E 023°41'0 0.0
2017-Dec-11 22:29N 70°40' E 023°41'0 0.0
2017-Dec-11 21:59N 70°40' E 023°41'0 0.0
2017-Dec-11 21:29N 70°40' E 023°41'0 0.0
2017-Dec-11 20:53N 70°40' E 023°41'0 0.0
2017-Dec-11 20:17N 70°40' E 023°41'0 0.0
2017-Dec-11 19:59N 70°40' E 023°41'0 0.0
2017-Dec-11 19:29N 70°40' E 023°41'0 0.0
2017-Dec-11 18:53N 70°40' E 023°41'0 0.0
2017-Dec-11 18:29N 70°40' E 023°41'0 0.0
2017-Dec-11 17:35N 70°40' E 023°41'0 0.0
2017-Dec-11 17:29N 70°40' E 023°41'0 0.0
2017-Dec-11 16:47N 70°40' E 023°41'0 0.0
2017-Dec-11 16:11N 70°40' E 023°41'0 0.0
2017-Dec-11 15:59N 70°40' E 023°41'0 0.0
2017-Dec-11 15:17N 70°40' E 023°41'0 0.0
2017-Dec-11 14:53N 70°40' E 023°41'0 0.0
2017-Dec-11 14:23N 70°40' E 023°41'0 0.0
2017-Dec-11 13:53N 70°40' E 023°41'0 0.0
2017-Dec-11 13:23N 70°40' E 023°41'0 0.0
2017-Dec-11 12:53N 70°40' E 023°41'0 0.0
2017-Dec-11 12:29N 70°40' E 023°41'0 0.0
2017-Dec-11 11:41N 70°40' E 023°41'0 0.0
2017-Dec-11 11:29N 70°40' E 023°41'0 0.0
2017-Dec-11 10:05N 70°40' E 023°41'0 0.0
2017-Dec-11 09:59N 70°40' E 023°41'0 0.0
2017-Dec-11 09:29N 70°40' E 023°41'0 0.0
2017-Dec-11 08:59N 70°40' E 023°41'0 0.0
2017-Dec-11 08:29N 70°40' E 023°41'0 0.0
2017-Dec-11 07:59N 70°40' E 023°41'0 0.0
2017-Dec-11 07:05N 70°40' E 023°41'0 0.0
2017-Dec-11 06:47N 70°40' E 023°41'0 0.0
2017-Dec-11 06:29N 70°40' E 023°41'0 0.0
2017-Dec-11 05:47N 70°40' E 023°41'0 0.0
2017-Dec-11 05:29N 70°40' E 023°41'0 0.0
2017-Dec-11 04:59N 70°40' E 023°41'  

Dump ship's entire track history